Time;durP1;ratioP1;P1;durP2;ratioP2;P2;SDS_P1;SDS_P2;PMS_P1;PMS_P2;Temp;Humidity;BMP_temperature;BMP_pressure;BME280_temperature;BME280_humidity;BME280_pressure;Samples;Min_cycle;Max_cycle;Signal;HPM_P1;HPM_P2
2022/05/26 00:02:25;;;;;;;5.97;2.85;;;;;;;15.54;68.84;101052.16;6126514;23;20045;-82
2022/05/26 00:04:52;;;;;;;4.60;2.75;;;;;;;15.50;69.07;101048.25;6129080;23;20022;-82
2022/05/26 00:07:19;;;;;;;5.78;2.88;;;;;;;15.66;68.65;101078.13;6129180;23;20089;-81
2022/05/26 00:09:47;;;;;;;3.78;2.55;;;;;;;15.57;68.70;101064.22;6129031;23;20088;-82
2022/05/26 00:12:16;;;;;;;5.57;2.72;;;;;;;15.63;68.76;101070.56;6127964;23;20538;-78
2022/05/26 00:14:43;;;;;;;5.18;2.30;;;;;;;15.55;68.92;101068.81;6128211;23;20328;-79
2022/05/26 00:17:10;;;;;;;4.10;2.45;;;;;;;15.58;68.69;101074.59;6128058;23;20049;-78
2022/05/26 00:19:36;;;;;;;6.75;2.50;;;;;;;15.61;68.62;101073.38;6127691;23;20100;-79
2022/05/26 00:22:03;;;;;;;4.35;2.50;;;;;;;15.64;68.90;101065.13;6129783;23;20074;-79
2022/05/26 00:24:30;;;;;;;5.53;2.15;;;;;;;15.63;68.81;101073.22;6129227;23;20058;-79
2022/05/26 00:26:58;;;;;;;2.33;2.05;;;;;;;15.68;68.49;101065.59;6130439;23;20060;-80
2022/05/26 00:29:24;;;;;;;5.47;2.38;;;;;;;15.68;68.30;101068.22;6126882;23;20065;-79
2022/05/26 00:31:51;;;;;;;6.75;2.30;;;;;;;15.70;68.69;101068.84;6126511;23;20034;-80
2022/05/26 00:34:17;;;;;;;5.30;2.65;;;;;;;15.62;68.93;101063.66;6126079;23;20105;-80
2022/05/26 00:36:44;;;;;;;6.75;2.50;;;;;;;15.66;69.04;101067.56;6126438;23;20534;-78
2022/05/26 00:39:13;;;;;;;3.85;2.42;;;;;;;15.59;69.54;101070.94;6126720;23;20034;-78
2022/05/26 00:41:43;;;;;;;4.28;2.28;;;;;;;15.55;70.12;101077.53;6126674;23;20101;-79
2022/05/26 00:44:12;;;;;;;7.07;3.38;;;;;;;15.52;70.45;101070.00;6130718;23;20032;-81
2022/05/26 00:46:49;;;;;;;7.00;2.80;;;;;;;15.51;70.86;101072.81;6129351;23;20467;-80
2022/05/26 00:49:23;;;;;;;8.65;4.13;;;;;;;15.49;71.08;101077.44;6129503;23;20037;-78
2022/05/26 00:51:49;;;;;;;5.03;3.15;;;;;;;15.39;71.78;101072.38;6128883;23;20122;-78
2022/05/26 00:54:22;;;;;;;7.78;3.80;;;;;;;15.42;71.74;101066.78;6128662;23;20392;-81
2022/05/26 00:56:53;;;;;;;9.98;4.30;;;;;;;15.38;72.07;101073.38;6129632;23;20022;-81
2022/05/26 00:59:28;;;;;;;8.13;3.85;;;;;;;15.39;72.20;101067.13;6128391;23;20659;-79
2022/05/26 01:01:58;;;;;;;9.40;3.22;;;;;;;15.38;72.53;101065.47;6128350;23;20060;-80
2022/05/26 01:04:27;;;;;;;8.35;3.63;;;;;;;15.38;72.52;101064.66;6128877;23;20026;-79
2022/05/26 01:06:59;;;;;;;3.42;2.75;;;;;;;15.34;72.60;101064.19;6130032;23;20064;-78
2022/05/26 01:09:25;;;;;;;6.40;2.92;;;;;;;15.36;72.29;101067.47;6129351;23;20057;-79
2022/05/26 01:11:52;;;;;;;6.90;2.70;;;;;;;15.40;72.27;101074.03;6130835;23;20046;-80
2022/05/26 01:14:24;;;;;;;7.22;2.65;;;;;;;15.35;72.58;101065.00;6132608;23;20026;-81
2022/05/26 01:17:03;;;;;;;10.23;2.33;;;;;;;15.31;72.60;101061.91;6132676;23;20038;-80
2022/05/26 01:19:57;;;;;;;6.55;2.88;;;;;;;15.27;72.53;101064.06;6132234;23;20045;-81
2022/05/26 01:22:35;;;;;;;4.72;2.40;;;;;;;15.24;72.87;101063.59;6132769;23;20045;-82
2022/05/26 01:25:19;;;;;;;3.85;2.58;;;;;;;15.20;73.04;101067.56;6135330;23;20029;-84
2022/05/26 01:27:56;;;;;;;5.38;2.08;;;;;;;15.22;72.96;101076.13;6137386;23;20473;-82
2022/05/26 01:30:29;;;;;;;5.60;2.72;;;;;;;15.20;73.07;101073.66;6137656;23;20026;-82
2022/05/26 01:33:37;;;;;;;3.58;1.88;;;;;;;15.18;73.15;101072.22;6131195;23;20061;-81
2022/05/26 01:36:17;;;;;;;4.38;2.20;;;;;;;15.23;73.02;101077.78;6131033;23;20384;-81
2022/05/26 01:38:55;;;;;;;4.45;2.38;;;;;;;15.14;73.56;101073.56;6129803;23;20129;-80
2022/05/26 01:41:40;;;;;;;3.15;2.25;;;;;;;15.17;73.71;101083.75;6130091;23;20097;-79
2022/05/26 01:44:16;;;;;;;5.10;2.17;;;;;;;15.15;73.60;101075.19;6131279;23;20026;-82
2022/05/26 01:46:45;;;;;;;5.53;2.67;;;;;;;15.19;73.50;101079.13;6132605;23;20037;-82
2022/05/26 01:49:19;;;;;;;4.47;2.30;;;;;;;15.13;73.98;101085.09;6130741;23;20029;-80
2022/05/26 01:51:54;;;;;;;6.97;2.83;;;;;;;15.08;74.03;101084.81;6132478;23;20407;-81
2022/05/26 01:54:27;;;;;;;2.90;2.30;;;;;;;15.15;73.93;101078.66;6132743;23;20065;-80
2022/05/26 01:56:59;;;;;;;4.43;2.50;;;;;;;15.07;74.41;101077.91;6131684;23;20018;-81
2022/05/26 01:59:31;;;;;;;5.63;2.92;;;;;;;15.06;74.77;101078.91;6131868;23;20509;-80
2022/05/26 02:02:01;;;;;;;8.20;3.53;;;;;;;15.07;74.84;101083.19;6131965;23;20026;-80
2022/05/26 02:04:36;;;;;;;7.97;3.40;;;;;;;15.14;74.61;101084.09;6133535;23;20081;-82
2022/05/26 02:07:08;;;;;;;5.65;3.40;;;;;;;15.11;74.93;101080.03;6132764;23;20049;-82
2022/05/26 02:09:41;;;;;;;9.73;3.97;;;;;;;15.07;74.96;101077.91;6132560;23;20022;-79
2022/05/26 02:12:13;;;;;;;6.55;4.60;;;;;;;15.08;75.21;101085.63;6131675;23;20074;-79
2022/05/26 02:14:45;;;;;;;9.70;5.10;;;;;;;15.07;75.32;101093.72;6130975;23;20127;-81
2022/05/26 02:17:14;;;;;;;;;;;;;;;15.11;75.23;101087.09;6130961;23;20023;-81
2022/05/26 02:19:46;;;;;;;7.63;4.18;;;;;;;15.07;75.34;101089.28;6130303;23;19917;-82
2022/05/26 02:22:18;;;;;;;5.53;4.23;;;;;;;15.09;75.59;101091.72;6130100;23;20353;-80
2022/05/26 02:24:51;;;;;;;6.30;2.97;;;;;;;15.10;76.38;101091.56;6129884;23;20101;-82
2022/05/26 02:27:18;;;;;;;3.97;3.00;;;;;;;15.14;76.27;101102.53;6129483;23;20093;-81
2022/05/26 02:29:54;;;;;;;5.32;2.97;;;;;;;15.10;76.09;101094.19;6129346;23;20033;-80
2022/05/26 02:32:24;;;;;;;7.85;2.88;;;;;;;15.09;75.84;101092.56;6129657;23;20052;-81
2022/05/26 02:34:55;;;;;;;5.93;3.20;;;;;;;15.10;76.20;101093.38;6133425;23;20069;-79
2022/05/26 02:37:24;;;;;;;7.28;3.20;;;;;;;15.08;76.48;101095.34;6141393;23;20407;-79
2022/05/26 02:39:51;;;;;;;10.48;4.18;;;;;;;15.02;76.34;101098.69;6132272;23;20049;-80
2022/05/26 02:42:19;;;;;;;9.18;4.43;;;;;;;15.04;76.73;101100.16;6137766;23;20049;-82
2022/05/26 02:44:46;;;;;;;9.77;4.32;;;;;;;15.06;76.65;101092.91;6142415;23;20026;-80
2022/05/26 02:47:32;;;;;;;7.93;4.10;;;;;;;15.08;76.67;101108.53;6137302;23;20053;-81
2022/05/26 02:50:19;;;;;;;6.85;4.07;;;;;;;15.00;76.69;101098.84;6133551;23;20109;-81
2022/05/26 02:53:01;;;;;;;4.80;3.42;;;;;;;15.06;76.87;101100.81;6136051;23;20094;-79
2022/05/26 02:55:41;;;;;;;7.22;3.42;;;;;;;15.06;76.87;101102.63;6131743;23;20356;-79
2022/05/26 02:58:13;;;;;;;5.75;3.85;;;;;;;15.00;76.87;101106.75;6130707;23;20053;-80
2022/05/26 03:00:48;;;;;;;5.47;4.13;;;;;;;15.04;77.14;101112.50;6128980;23;20391;-79
2022/05/26 03:03:23;;;;;;;6.13;3.25;;;;;;;15.00;77.30;101114.66;6129562;23;20038;-80
2022/05/26 03:05:57;;;;;;;7.30;3.45;;;;;;;14.99;77.24;101118.31;6130188;23;20049;-79
2022/05/26 03:08:27;;;;;;;6.70;3.63;;;;;;;14.99;77.25;101120.94;6130086;23;20106;-81
2022/05/26 03:11:02;;;;;;;6.72;3.55;;;;;;;14.95;77.40;101119.63;6129652;23;20025;-80
2022/05/26 03:13:28;;;;;;;10.25;4.03;;;;;;;14.93;77.67;101114.53;6131326;23;20026;-80
2022/05/26 03:15:56;;;;;;;6.10;3.65;;;;;;;14.96;77.68;101117.81;6130098;23;20410;-80
2022/05/26 03:18:22;;;;;;;8.60;4.05;;;;;;;14.96;77.41;101117.81;6129722;23;20097;-81
2022/05/26 03:20:49;;;;;;;9.00;3.80;;;;;;;14.99;77.26;101122.75;6129672;23;20044;-80
2022/05/26 03:23:17;;;;;;;9.27;4.00;;;;;;;14.97;77.42;101114.19;6129873;23;20045;-81
2022/05/26 03:25:45;;;;;;;6.88;3.88;;;;;;;14.98;77.78;101119.28;6130721;23;20049;-79
2022/05/26 03:28:12;;;;;;;6.88;3.90;;;;;;;14.92;77.67;101128.69;6129942;23;20022;-80
2022/05/26 03:30:39;;;;;;;7.05;4.53;;;;;;;14.93;78.04;101119.81;6130076;23;20081;-82
2022/05/26 03:33:06;;;;;;;7.63;3.90;;;;;;;14.98;77.85;101121.09;6129843;23;20049;-80
2022/05/26 03:41:10;;;;;;;9.25;4.65;;;;;;;14.92;78.15;101127.88;6130394;23;20462;-79
2022/05/26 03:43:40;;;;;;;9.80;4.45;;;;;;;14.91;78.37;101121.78;6130365;23;20056;-80
2022/05/26 03:46:07;;;;;;;8.90;4.78;;;;;;;14.87;78.91;101130.22;6130804;23;20029;-79
2022/05/26 03:48:35;;;;;;;10.25;4.45;;;;;;;14.88;79.09;101137.94;6132938;23;20101;-81
2022/05/26 03:51:02;;;;;;;7.72;4.50;;;;;;;14.90;78.80;101128.06;6132853;23;20026;-80
2022/05/26 03:53:30;;;;;;;8.52;4.57;;;;;;;14.90;78.92;101135.13;6131436;23;20030;-81
2022/05/26 03:55:56;;;;;;;9.77;4.97;;;;;;;14.87;79.05;101136.31;6129891;23;20057;-82
2022/05/26 03:58:23;;;;;;;10.80;4.72;;;;;;;14.87;79.47;101141.56;6128789;23;20141;-80
2022/05/26 04:00:50;;;;;;;8.63;4.40;;;;;;;14.84;79.55;101141.91;6131736;23;20101;-80
2022/05/26 04:03:17;;;;;;;11.48;4.85;;;;;;;14.88;79.67;101145.03;6132139;23;20081;-82
2022/05/26 04:05:44;;;;;;;12.93;5.38;;;;;;;14.85;79.93;101150.63;6131842;23;20351;-80
2022/05/26 04:08:10;;;;;;;12.35;5.15;;;;;;;14.85;79.78;101148.81;6131606;23;20419;-81
2022/05/26 04:10:38;;;;;;;7.35;4.82;;;;;;;14.90;79.96;101154.41;6131112;23;20025;-82
2022/05/26 04:13:06;;;;;;;7.60;4.80;;;;;;;14.81;79.92;101158.06;6131600;23;20032;-82
2022/05/26 04:15:33;;;;;;;8.15;5.22;;;;;;;14.81;80.17;101157.22;6128470;23;20053;-80
2022/05/26 04:17:59;;;;;;;11.65;5.70;;;;;;;14.86;80.27;101166.28;6129328;23;20081;-83
2022/05/26 04:20:26;;;;;;;10.13;5.32;;;;;;;14.87;80.12;101160.00;6130009;23;20049;-82
2022/05/26 04:22:53;;;;;;;11.32;5.30;;;;;;;14.82;80.49;101164.16;6128911;23;20535;-79
2022/05/26 04:25:22;;;;;;;9.05;5.25;;;;;;;14.84;80.33;101168.25;6128525;23;20022;-80
2022/05/26 04:27:50;;;;;;;9.90;5.40;;;;;;;14.79;80.29;101175.84;6129205;23;20022;-80
2022/05/26 04:30:16;;;;;;;9.25;5.18;;;;;;;14.79;80.41;101177.66;6131983;23;20501;-79
2022/05/26 04:32:43;;;;;;;8.52;5.10;;;;;;;14.81;80.42;101178.31;6130198;23;20287;-82
2022/05/26 04:35:10;;;;;;;10.63;5.15;;;;;;;14.85;80.50;101188.34;6130671;23;20057;-82
2022/05/26 04:37:37;;;;;;;13.70;5.60;;;;;;;14.83;80.45;101181.59;6134014;23;20177;-79
2022/05/26 04:40:06;;;;;;;10.00;5.78;;;;;;;14.82;80.71;101178.16;6133277;23;20029;-79
2022/05/26 04:42:33;;;;;;;8.77;5.22;;;;;;;14.85;80.40;101180.44;6132786;23;20105;-81
2022/05/26 04:45:01;;;;;;;12.07;6.18;;;;;;;14.81;80.75;101181.78;6132177;23;20053;-81
2022/05/26 04:47:28;;;;;;;9.75;5.43;;;;;;;14.78;81.05;101187.38;6132057;23;20053;-81
2022/05/26 04:49:54;;;;;;;11.68;5.80;;;;;;;14.76;81.22;101181.44;6132057;23;20070;-81
2022/05/26 04:52:23;;;;;;;9.80;5.88;;;;;;;14.79;81.03;101181.13;6134263;23;20105;-83
2022/05/26 04:54:50;;;;;;;12.52;5.88;;;;;;;14.81;81.02;101194.13;6133004;23;20025;-84
2022/05/26 04:57:19;;;;;;;15.55;6.53;;;;;;;14.86;80.71;101181.25;6132549;23;20429;-85
2022/05/26 04:59:46;;;;;;;12.85;5.95;;;;;;;14.91;80.36;101190.31;6132659;23;20026;-82
2022/05/26 05:02:19;;;;;;;13.38;5.75;;;;;;;14.97;80.38;101185.34;6129885;23;20065;-81
2022/05/26 05:04:48;;;;;;;10.57;5.75;;;;;;;14.97;80.42;101188.81;6130833;23;20104;-80
2022/05/26 05:07:17;;;;;;;11.50;5.53;;;;;;;15.01;80.34;101194.56;6130016;23;20022;-81
2022/05/26 05:09:45;;;;;;;16.10;6.18;;;;;;;15.02;80.38;101201.47;6130794;23;20030;-80
2022/05/26 05:12:14;;;;;;;11.07;6.07;;;;;;;14.94;80.76;101189.97;6131225;23;20033;-81
2022/05/26 05:14:44;;;;;;;14.63;5.75;;;;;;;15.08;80.36;101200.78;6131342;23;20053;-79
2022/05/26 05:17:11;;;;;;;13.23;6.70;;;;;;;15.05;80.58;101209.03;6130556;23;20388;-81
2022/05/26 05:19:39;;;;;;;13.40;6.55;;;;;;;15.09;80.35;101207.69;6131199;23;20355;-80
2022/05/26 05:22:10;;;;;;;10.68;6.28;;;;;;;15.11;80.57;101197.81;6131003;23;20085;-81
2022/05/26 05:24:43;;;;;;;13.93;6.10;;;;;;;15.15;80.20;101201.72;6130880;23;20459;-81
2022/05/26 05:27:15;;;;;;;11.43;6.13;;;;;;;15.17;80.44;101215.53;6132736;23;20102;-80
2022/05/26 05:29:43;;;;;;;18.50;6.57;;;;;;;15.21;80.14;101214.22;6133610;23;20054;-81
2022/05/26 05:32:16;;;;;;;12.80;6.30;;;;;;;15.20;80.05;101215.22;6135127;23;20033;-82
2022/05/26 05:34:47;;;;;;;14.93;5.93;;;;;;;15.16;80.41;101229.72;6142629;23;20045;-82
2022/05/26 05:37:14;;;;;;;14.35;7.00;;;;;;;15.19;80.21;101224.09;6148392;23;20025;-82
2022/05/26 05:39:41;;;;;;;13.52;6.60;;;;;;;15.14;80.27;101226.44;6148296;23;20033;-83
2022/05/26 05:42:09;;;;;;;11.27;6.28;;;;;;;15.18;80.64;101235.66;6139988;23;20033;-82
2022/05/26 05:44:36;;;;;;;11.75;6.28;;;;;;;15.28;80.13;101236.25;6130774;23;20057;-83
2022/05/26 05:47:03;;;;;;;13.60;6.03;;;;;;;15.42;79.85;101240.00;6131261;23;20049;-83
2022/05/26 05:49:32;;;;;;;12.02;5.82;;;;;;;15.42;79.29;101245.28;6131164;23;20259;-82
2022/05/26 05:52:08;;;;;;;12.27;5.85;;;;;;;15.51;79.16;101242.44;6132080;23;20045;-81
2022/05/26 05:54:35;;;;;;;13.60;6.55;;;;;;;15.54;79.13;101243.91;6137290;23;20064;-82
2022/05/26 05:57:02;;;;;;;14.48;6.50;;;;;;;15.75;78.85;101240.66;6135928;23;20054;-83
2022/05/26 05:59:28;;;;;;;9.95;5.93;;;;;;;16.03;77.42;101247.06;6139960;23;20034;-83
2022/05/26 06:04:20;;;;;;;11.40;6.00;;;;;;;18.19;69.49;101233.41;6133540;23;20062;-83
2022/05/26 06:06:47;;;;;;;11.85;6.30;;;;;;;18.73;66.34;101251.38;6133284;23;20029;-83
2022/05/26 06:09:16;;;;;;;13.95;6.68;;;;;;;18.31;66.98;101252.25;6133506;23;20064;-81
2022/05/26 06:11:43;;;;;;;9.48;5.60;;;;;;;19.09;64.44;101251.97;6133602;23;20029;-82
2022/05/26 06:14:10;;;;;;;10.77;5.78;;;;;;;18.94;65.40;101264.53;6133059;23;20045;-82
2022/05/26 06:16:37;;;;;;;12.77;6.32;;;;;;;18.33;66.49;101266.13;6133016;23;20048;-83
2022/05/26 06:19:04;;;;;;;13.43;6.90;;;;;;;17.48;69.74;101257.13;6133393;23;20025;-83
2022/05/26 06:21:32;;;;;;;11.68;7.00;;;;;;;17.50;70.39;101265.69;6133163;23;20090;-83
2022/05/26 06:23:59;;;;;;;15.88;6.88;;;;;;;17.21;71.31;101268.38;6132499;23;20085;-82
2022/05/26 06:26:28;;;;;;;15.18;6.72;;;;;;;16.96;72.16;101277.63;6131167;23;20022;-82
2022/05/26 06:31:39;;;;;;;11.90;6.82;;;;;;;16.74;72.03;101280.13;6131705;23;20068;-81
2022/05/26 06:39:35;;;;;;;12.50;7.00;;;;;;;16.58;72.65;101280.25;6141339;23;20089;-83
2022/05/26 06:42:06;;;;;;;18.60;7.47;;;;;;;16.65;72.67;101302.34;6132324;23;20065;-84
2022/05/26 06:44:34;;;;;;;14.10;7.50;;;;;;;16.68;71.91;101294.06;6127226;23;20022;-87
2022/05/26 06:47:01;;;;;;;10.68;6.40;;;;;;;16.79;72.16;101300.75;6130732;23;20561;-85
2022/05/26 06:49:27;;;;;;;16.42;7.85;;;;;;;16.79;72.50;101314.78;6131912;23;20510;-85
2022/05/26 06:51:54;;;;;;;12.98;7.15;;;;;;;16.71;72.87;101312.19;6129762;23;20149;-84
2022/05/26 06:54:20;;;;;;;15.90;7.40;;;;;;;16.64;73.40;101313.06;6131248;23;20069;-84
2022/05/26 06:56:47;;;;;;;16.05;7.32;;;;;;;16.86;72.59;101310.41;6133425;23;20017;-84
2022/05/26 06:59:15;;;;;;;12.82;6.40;;;;;;;16.84;71.61;101293.09;6134244;23;20025;-84
2022/05/26 07:01:42;;;;;;;12.77;7.10;;;;;;;17.37;70.44;101305.22;6133057;23;20058;-87
2022/05/26 07:04:08;;;;;;;12.00;6.53;;;;;;;18.63;66.34;101303.91;6134024;23;20022;-83
2022/05/26 07:06:35;;;;;;;11.40;6.20;;;;;;;18.43;66.64;101303.72;6133330;23;20408;-83
2022/05/26 07:09:02;;;;;;;11.00;6.40;;;;;;;18.06;68.23;101318.84;6135721;23;20057;-82
2022/05/26 07:11:30;;;;;;;13.52;6.47;;;;;;;18.06;67.54;101318.84;6136266;23;20034;-81
2022/05/26 07:13:57;;;;;;;14.80;6.32;;;;;;;17.96;66.78;101328.94;6136362;23;20352;-83
2022/05/26 07:16:25;;;;;;;13.95;6.40;;;;;;;18.24;66.90;101315.78;6133668;23;20026;-83
2022/05/26 07:18:53;;;;;;;13.25;6.22;;;;;;;18.41;67.34;101327.78;6131113;23;20026;-84
2022/05/26 07:21:20;;;;;;;13.05;6.53;;;;;;;18.75;64.57;101327.06;6132033;23;20017;-83
2022/05/26 07:23:47;;;;;;;10.82;6.05;;;;;;;19.03;63.87;101320.91;6132380;23;20026;-83
2022/05/26 07:26:16;;;;;;;9.02;5.97;;;;;;;19.08;63.96;101323.78;6133811;23;20108;-84
2022/05/26 07:28:43;;;;;;;13.52;6.57;;;;;;;19.10;64.58;101332.38;6131934;23;20026;-82
2022/05/26 07:31:11;;;;;;;16.52;6.30;;;;;;;19.68;62.81;101338.22;6132664;23;20088;-83
2022/05/26 07:33:40;;;;;;;16.92;6.82;;;;;;;18.88;64.93;101342.25;6134885;23;20247;-83
2022/05/26 07:36:08;;;;;;;10.13;6.05;;;;;;;18.28;65.90;101343.53;6135815;23;20053;-82
2022/05/26 07:41:24;;;;;;;14.95;6.78;;;;;;;18.93;65.13;101346.94;6137068;23;20054;-83
2022/05/26 07:43:57;;;;;;;12.93;5.80;;;;;;;19.47;62.47;101350.53;6137149;23;20056;-85
2022/05/26 07:46:25;;;;;;;11.02;5.65;;;;;;;19.36;61.58;101347.63;6137528;23;20077;-83
2022/05/26 07:48:53;;;;;;;12.27;5.82;;;;;;;20.01;60.50;101360.38;6133912;23;20026;-83
2022/05/26 07:51:21;;;;;;;12.88;6.72;;;;;;;19.06;62.86;101349.69;6134332;23;20097;-82
2022/05/26 07:53:50;;;;;;;14.95;6.75;;;;;;;19.17;63.04;101349.16;6133135;23;20036;-83
2022/05/26 07:56:17;;;;;;;13.40;5.78;;;;;;;19.42;61.68;101357.44;6134277;23;20053;-82
2022/05/26 07:58:44;;;;;;;14.10;5.70;;;;;;;20.62;58.93;101351.50;6134847;23;20028;-83
2022/05/26 08:01:13;;;;;;;11.75;5.50;;;;;;;21.56;55.72;101359.13;6135293;23;20033;-83
2022/05/26 08:03:40;;;;;;;11.93;6.22;;;;;;;20.14;58.02;101362.25;6135162;23;20106;-82
2022/05/26 08:06:08;;;;;;;9.13;5.60;;;;;;;19.40;60.70;101349.69;6135412;23;20026;-83
2022/05/26 08:08:37;;;;;;;14.25;5.88;;;;;;;18.53;63.64;101354.56;6135732;23;20022;-81
2022/05/26 08:11:04;;;;;;;11.60;6.47;;;;;;;19.65;60.79;101367.81;6135766;23;20025;-82
2022/05/26 08:13:31;;;;;;;9.73;5.60;;;;;;;20.39;58.13;101358.00;6137680;23;20355;-82
2022/05/26 08:16:00;;;;;;;8.02;5.55;;;;;;;21.03;55.66;101361.91;6137366;23;20022;-83
2022/05/26 08:18:28;;;;;;;10.82;5.53;;;;;;;21.15;54.00;101365.56;6134253;23;20042;-82
2022/05/26 08:20:55;;;;;;;13.60;6.20;;;;;;;19.54;59.69;101367.34;6135646;23;20030;-82
2022/05/26 08:23:25;;;;;;;12.70;6.38;;;;;;;18.95;62.95;101368.78;6135687;23;20029;-81
2022/05/26 08:25:52;;;;;;;12.02;5.78;;;;;;;18.63;63.68;101378.13;6135362;23;20414;-81
2022/05/26 08:28:19;;;;;;;15.30;6.43;;;;;;;19.30;61.70;101378.44;6134793;23;20407;-81
2022/05/26 08:30:48;;;;;;;10.07;5.35;;;;;;;19.16;61.22;101379.34;6136218;23;20060;-82
2022/05/26 08:33:14;;;;;;;12.40;5.80;;;;;;;19.10;60.38;101375.63;6136279;23;20033;-82
2022/05/26 08:35:41;;;;;;;8.43;5.65;;;;;;;19.98;58.55;101376.72;6135639;23;20439;-81
2022/05/26 08:38:08;;;;;;;10.35;5.65;;;;;;;20.58;57.15;101383.00;6134621;23;20018;-82
2022/05/26 08:40:38;;;;;;;9.68;5.03;;;;;;;20.96;54.39;101383.19;6135384;23;20432;-82
2022/05/26 08:43:07;;;;;;;8.48;4.78;;;;;;;21.12;53.52;101387.28;6135774;23;20029;-83
2022/05/26 08:45:37;;;;;;;9.60;4.78;;;;;;;21.32;52.31;101393.41;6135532;23;20029;-82
2022/05/26 08:48:05;;;;;;;10.05;5.32;;;;;;;22.04;52.28;101399.53;6137021;23;20033;-83
2022/05/26 08:50:35;;;;;;;10.27;4.72;;;;;;;23.03;48.66;101398.84;6136167;23;20062;-82
2022/05/26 08:53:08;;;;;;;9.65;5.07;;;;;;;21.75;50.36;101398.19;6135023;23;20053;-83
2022/05/26 08:55:43;;;;;;;10.43;5.03;;;;;;;21.86;50.44;101405.50;6135121;23;20032;-82
2022/05/26 08:58:12;;;;;;;11.73;4.90;;;;;;;21.92;49.33;101409.19;6135304;23;20451;-82
2022/05/26 09:00:40;;;;;;;11.85;5.57;;;;;;;21.91;50.17;101397.72;6136514;23;20045;-82
2022/05/26 09:03:23;;;;;;;10.98;5.75;;;;;;;20.98;51.99;101401.59;6137660;23;20026;-81
2022/05/26 09:05:55;;;;;;;11.93;5.72;;;;;;;21.15;54.88;101418.81;6137506;23;20029;-81
2022/05/26 09:13:58;;;;;;;10.90;5.60;;;;;;;19.99;56.66;101428.81;6138626;23;20084;-83
2022/05/26 09:16:27;;;;;;;11.02;5.22;;;;;;;20.09;55.96;101421.31;6138319;23;20030;-82
2022/05/26 09:19:07;;;;;;;11.27;5.13;;;;;;;20.24;55.06;101421.16;6138246;23;20018;-82
2022/05/26 09:21:36;;;;;;;9.55;5.10;;;;;;;20.03;55.90;101429.25;6138975;23;20033;-81
2022/05/26 09:24:19;;;;;;;9.95;4.32;;;;;;;20.27;54.79;101426.06;6138179;23;20156;-80
2022/05/26 09:26:49;;;;;;;11.90;6.10;;;;;;;20.57;54.56;101431.88;6138102;23;20097;-78
2022/05/26 09:29:16;;;;;;;10.07;5.22;;;;;;;20.49;54.12;101418.78;6138623;23;20025;-81
2022/05/26 09:31:48;;;;;;;9.77;5.70;;;;;;;20.39;55.35;101429.78;6139145;23;20022;-82
2022/05/26 09:34:20;;;;;;;11.98;5.60;;;;;;;20.10;55.03;101436.22;6138454;23;20049;-80
2022/05/26 09:36:49;;;;;;;8.45;5.00;;;;;;;20.92;53.30;101423.72;6137914;23;20025;-82
2022/05/26 09:39:21;;;;;;;9.23;5.43;;;;;;;20.97;53.69;101434.56;6137853;23;20025;-82
2022/05/26 09:41:51;;;;;;;9.88;5.15;;;;;;;21.66;51.42;101436.75;6138719;23;20076;-81
2022/05/26 09:44:45;;;;;;;8.75;4.60;;;;;;;21.56;51.98;101447.00;6137829;23;20022;-82
2022/05/26 09:47:24;;;;;;;10.02;4.82;;;;;;;21.81;52.08;101438.13;6130692;23;20161;-83
2022/05/26 09:49:55;;;;;;;7.43;4.53;;;;;;;21.74;50.68;101439.97;6137694;23;20045;-84
2022/05/26 09:52:23;;;;;;;8.60;4.47;;;;;;;22.01;49.47;101454.06;6136441;23;20048;-83
2022/05/26 09:55:07;;;;;;;10.88;4.60;;;;;;;22.06;50.61;101442.78;6138727;23;20033;-84
2022/05/26 09:57:35;;;;;;;14.45;5.20;;;;;;;21.94;51.56;101437.25;6138604;23;20022;-83
2022/05/26 10:00:05;;;;;;;10.05;5.07;;;;;;;21.86;51.18;101437.50;6139136;23;20014;-83
2022/05/26 10:02:37;;;;;;;9.30;4.47;;;;;;;21.88;50.37;101435.44;6138215;23;20026;-81
2022/05/26 10:05:14;;;;;;;7.32;4.43;;;;;;;21.70;50.45;101448.63;6138864;23;20363;-82
2022/05/26 10:07:58;;;;;;;10.82;5.03;;;;;;;21.89;50.24;101438.91;6138648;23;20022;-82
2022/05/26 10:10:30;;;;;;;9.85;5.20;;;;;;;21.43;50.41;101431.88;6138370;23;20022;-81
2022/05/26 10:13:12;;;;;;;9.25;4.50;;;;;;;22.07;50.25;101445.22;6138853;23;20026;-80
2022/05/26 10:15:54;;;;;;;10.20;4.57;;;;;;;21.96;49.09;101448.53;6138861;23;20061;-81
2022/05/26 10:18:41;;;;;;;8.73;4.30;;;;;;;21.70;50.11;101443.31;6144889;23;20021;-79
2022/05/26 10:21:16;;;;;;;9.65;4.68;;;;;;;21.44;51.29;101444.97;6138937;23;20049;-81
2022/05/26 10:24:03;;;;;;;9.75;4.50;;;;;;;21.72;52.38;101443.91;6136556;23;20030;-82
2022/05/26 10:26:38;;;;;;;9.98;5.10;;;;;;;21.85;50.25;101441.19;6137519;23;20033;-83
2022/05/26 10:29:39;;;;;;;11.25;5.03;;;;;;;21.16;51.22;101452.38;6136684;23;20026;-81
2022/05/26 10:32:18;;;;;;;16.55;6.22;;;;;;;21.12;51.57;101445.81;6136142;23;20026;-82
2022/05/26 10:35:05;;;;;;;16.05;5.20;;;;;;;21.83;49.29;101453.88;6138184;23;20046;-83
2022/05/26 10:37:49;;;;;;;7.82;4.30;;;;;;;21.75;47.91;101448.78;6137435;23;20057;-82
2022/05/26 10:40:29;;;;;;;9.55;4.70;;;;;;;21.20;49.57;101442.97;6138158;23;20410;-83
2022/05/26 10:43:03;;;;;;;9.77;4.18;;;;;;;21.12;49.45;101443.16;6137224;23;20033;-82
2022/05/26 10:45:37;;;;;;;7.85;4.25;;;;;;;21.69;48.28;101447.81;6137291;23;20053;-83
2022/05/26 10:48:09;;;;;;;6.78;3.85;;;;;;;21.05;47.72;101455.66;6137322;23;20029;-83
2022/05/26 10:50:40;;;;;;;8.13;4.38;;;;;;;21.48;47.92;101448.06;6137601;23;20481;-82
2022/05/26 10:53:16;;;;;;;8.63;4.00;;;;;;;21.30;49.65;101450.53;6137277;23;20455;-83
2022/05/26 10:55:52;;;;;;;11.75;4.65;;;;;;;20.58;50.58;101448.66;6136823;23;20493;-82
2022/05/26 10:58:26;;;;;;;7.70;4.32;;;;;;;20.31;53.13;101455.72;6136927;23;20097;-82
2022/05/26 11:00:59;;;;;;;8.98;4.00;;;;;;;20.93;51.66;101446.63;6137314;23;20121;-82
2022/05/26 11:03:31;;;;;;;8.43;3.95;;;;;;;21.63;48.12;101448.63;6136494;23;20022;-82
2022/05/26 11:06:06;;;;;;;8.25;4.22;;;;;;;21.98;47.48;101453.66;6136462;23;20033;-82
2022/05/26 11:08:40;;;;;;;10.15;6.20;;;;;;;21.08;50.27;101450.75;6136011;23;20021;-83
2022/05/26 11:11:13;;;;;;;10.48;4.70;;;;;;;20.84;52.17;101467.28;6135205;23;20014;-83
2022/05/26 11:13:48;;;;;;;12.07;4.80;;;;;;;20.87;50.50;101462.38;6135318;23;20100;-82
2022/05/26 11:19:21;;;;;;;8.70;4.25;;;;;;;21.24;48.97;101457.53;6135580;23;20024;-80
2022/05/26 11:21:48;;;;;;;6.28;3.78;;;;;;;21.35;49.32;101459.53;6135369;23;20026;-81
2022/05/26 11:24:16;;;;;;;8.65;3.70;;;;;;;21.24;51.06;101460.19;6136069;23;20490;-80
2022/05/26 11:26:49;;;;;;;11.55;4.15;;;;;;;21.39;50.35;101459.94;6136650;23;20013;-81
2022/05/26 11:29:21;;;;;;;7.82;3.70;;;;;;;21.63;45.57;101455.81;6135935;23;20079;-82
2022/05/26 11:37:31;;;;;;;6.25;3.55;;;;;;;22.32;45.37;101455.16;6138229;23;20037;-84
2022/05/26 11:40:01;;;;;;;8.07;3.70;;;;;;;21.49;47.28;101460.34;6136090;23;20024;-82
2022/05/26 11:42:34;;;;;;;6.40;3.53;;;;;;;21.17;48.91;101457.50;6134117;23;20026;-82
2022/05/26 11:45:20;;;;;;;7.75;3.53;;;;;;;21.31;47.59;101466.28;6135254;23;20056;-81
2022/05/26 11:47:54;;;;;;;8.05;3.88;;;;;;;21.83;47.44;101453.88;6134604;23;20057;-83
2022/05/26 11:50:28;;;;;;;6.80;3.50;;;;;;;21.74;47.14;101452.50;6135224;23;20022;-82
2022/05/26 11:53:18;;;;;;;7.55;3.75;;;;;;;21.48;48.29;101454.19;6134213;23;20026;-81
2022/05/26 11:55:53;;;;;;;6.40;3.60;;;;;;;21.37;47.49;101460.16;6134898;23;20044;-82
2022/05/26 11:58:32;;;;;;;10.80;4.05;;;;;;;21.30;47.98;101462.00;6134447;23;20045;-82
2022/05/26 12:01:33;;;;;;;6.85;3.78;;;;;;;21.21;47.49;101455.28;6133522;23;20044;-81
2022/05/26 12:04:19;;;;;;;5.43;3.65;;;;;;;21.07;47.90;101459.75;6131733;23;20026;-83
2022/05/26 12:06:55;;;;;;;5.47;3.67;;;;;;;21.42;49.20;101456.88;6130165;23;20049;-81
2022/05/26 12:09:28;;;;;;;7.43;3.75;;;;;;;21.53;48.45;101457.06;6129805;23;20053;-81
2022/05/26 12:11:59;;;;;;;7.60;3.80;;;;;;;21.85;47.00;101459.81;6129849;23;20049;-81
2022/05/26 12:14:32;;;;;;;7.53;4.05;;;;;;;22.08;47.31;101456.72;6130028;23;20072;-81